createdAt,value
2023-01-19T00:00:32.680Z,950.38
2023-01-19T00:01:32.423Z,950.4
2023-01-19T00:02:32.586Z,950.38
2023-01-19T00:03:32.457Z,950.39
2023-01-19T00:04:32.377Z,950.41
2023-01-19T00:05:32.514Z,950.4
2023-01-19T00:06:32.689Z,950.39
2023-01-19T00:08:32.565Z,950.42
2023-01-19T00:09:32.547Z,950.46
2023-01-19T00:10:32.509Z,950.43
2023-01-19T00:11:32.518Z,950.46
2023-01-19T00:12:32.578Z,950.41
2023-01-19T00:13:32.534Z,950.38
2023-01-19T00:14:32.425Z,950.48
2023-01-19T00:15:32.528Z,950.42
2023-01-19T00:16:32.621Z,950.41
2023-01-19T00:17:32.508Z,950.45
2023-01-19T00:18:32.729Z,950.49
2023-01-19T00:19:32.559Z,950.5
2023-01-19T00:20:32.694Z,950.49
2023-01-19T00:21:32.537Z,950.48
2023-01-19T00:22:32.387Z,950.49
2023-01-19T00:23:32.620Z,950.48
2023-01-19T00:24:32.579Z,950.49
2023-01-19T00:25:32.499Z,950.48
2023-01-19T00:26:32.450Z,950.47
2023-01-19T00:27:32.447Z,950.5
2023-01-19T00:29:32.586Z,950.48
2023-01-19T00:30:32.629Z,950.53
2023-01-19T00:31:32.547Z,950.5
2023-01-19T00:32:32.703Z,950.52
2023-01-19T00:33:32.636Z,950.51
2023-01-19T00:34:32.611Z,950.53
2023-01-19T00:35:32.535Z,950.51
2023-01-19T00:36:32.615Z,950.52
2023-01-19T00:38:32.506Z,950.51
2023-01-19T00:39:32.559Z,950.48
2023-01-19T00:40:32.632Z,950.5
2023-01-19T00:41:32.646Z,950.48
2023-01-19T00:43:32.548Z,950.45
2023-01-19T00:44:32.603Z,950.44
2023-01-19T00:45:32.695Z,950.43
2023-01-19T00:46:32.559Z,950.48
2023-01-19T00:47:32.514Z,950.41
2023-01-19T00:48:32.535Z,950.45
2023-01-19T00:49:32.731Z,950.44
2023-01-19T00:50:32.592Z,950.45
2023-01-19T00:51:32.568Z,950.47
2023-01-19T00:53:32.710Z,950.46
2023-01-19T00:54:32.707Z,950.48
2023-01-19T00:55:32.544Z,950.49
2023-01-19T00:56:32.582Z,950.5
2023-01-19T00:57:32.659Z,950.49
2023-01-19T00:58:32.583Z,950.5
2023-01-19T00:59:32.576Z,950.51
2023-01-19T01:00:32.656Z,950.47
2023-01-19T01:01:44.874Z,950.52
2023-01-19T01:02:32.732Z,950.53
2023-01-19T01:03:32.782Z,950.51
2023-01-19T01:04:32.640Z,950.53
2023-01-19T01:06:32.675Z,950.54
2023-01-19T01:07:32.613Z,950.55
2023-01-19T01:08:32.730Z,950.6
2023-01-19T01:09:32.827Z,950.59
2023-01-19T01:10:32.643Z,950.61
2023-01-19T01:11:32.662Z,950.59
2023-01-19T01:13:32.974Z,950.61
2023-01-19T01:14:32.692Z,950.6
2023-01-19T01:15:32.718Z,950.62
2023-01-19T01:16:32.802Z,950.63
2023-01-19T01:17:32.606Z,950.67
2023-01-19T01:18:32.773Z,950.65
2023-01-19T01:19:32.825Z,950.7
2023-01-19T01:20:32.727Z,950.69
2023-01-19T01:21:32.794Z,950.64
2023-01-19T01:22:32.834Z,950.7
2023-01-19T01:24:32.750Z,950.66
2023-01-19T01:25:32.685Z,950.72
2023-01-19T01:26:32.840Z,950.73
2023-01-19T01:28:32.856Z,950.69
2023-01-19T01:29:32.732Z,950.71
2023-01-19T01:30:32.705Z,950.77
2023-01-19T01:31:32.708Z,950.79
2023-01-19T01:33:40.381Z,950.8
2023-01-19T01:34:32.673Z,950.82
2023-01-19T01:35:32.790Z,950.81
2023-01-19T01:36:32.763Z,950.83
2023-01-19T01:37:32.703Z,950.86
2023-01-19T01:38:32.743Z,950.87
2023-01-19T01:39:32.738Z,950.84
2023-01-19T01:40:32.789Z,950.83
2023-01-19T01:41:32.807Z,950.87
2023-01-19T01:42:32.902Z,950.86
2023-01-19T01:43:32.843Z,950.83
2023-01-19T01:44:32.969Z,950.85
2023-01-19T01:46:32.838Z,950.84
2023-01-19T01:48:32.894Z,950.86
2023-01-19T01:49:32.662Z,950.83
2023-01-19T01:50:32.659Z,950.86
2023-01-19T01:51:32.903Z,950.88
2023-01-19T01:52:32.716Z,950.89
2023-01-19T01:53:32.836Z,950.92
2023-01-19T01:54:32.860Z,950.9
2023-01-19T01:55:32.854Z,950.88
2023-01-19T01:56:32.854Z,950.85
2023-01-19T01:57:32.838Z,950.89
2023-01-19T01:58:32.922Z,950.87
2023-01-19T01:59:32.833Z,950.9
2023-01-19T02:00:32.804Z,950.89
2023-01-19T02:01:32.995Z,950.85
2023-01-19T02:02:32.859Z,950.9
2023-01-19T02:04:32.867Z,950.87
2023-01-19T02:05:32.773Z,950.85
2023-01-19T02:06:32.771Z,950.88
2023-01-19T02:07:32.933Z,950.91
2023-01-19T02:09:32.726Z,950.89
2023-01-19T02:10:32.880Z,950.94
2023-01-19T02:11:32.877Z,950.91
2023-01-19T02:12:32.812Z,950.92
2023-01-19T02:13:32.825Z,950.93
2023-01-19T02:14:32.871Z,950.96
2023-01-19T02:15:32.795Z,950.93
2023-01-19T02:18:32.841Z,950.94
2023-01-19T02:19:32.820Z,950.92
2023-01-19T02:20:33.747Z,950.96
2023-01-19T02:22:32.925Z,950.93
2023-01-19T02:23:32.796Z,950.98
2023-01-19T02:24:32.776Z,950.94
2023-01-19T02:25:32.860Z,950.97
2023-01-19T02:26:32.779Z,951.01
2023-01-19T02:27:32.777Z,950.99
2023-01-19T02:28:32.921Z,951.02
2023-01-19T02:29:33.036Z,951.01
2023-01-19T02:30:32.970Z,951.03
2023-01-19T02:31:32.839Z,951.02
2023-01-19T02:32:32.867Z,951.06
2023-01-19T02:33:32.780Z,951.04
2023-01-19T02:34:32.876Z,951.07
2023-01-19T02:35:32.921Z,951.09
2023-01-19T02:36:32.956Z,951.07
2023-01-19T02:37:32.899Z,951.05
2023-01-19T02:38:32.886Z,951.06
2023-01-19T02:39:32.979Z,951.04
2023-01-19T02:40:32.837Z,951.07
2023-01-19T02:41:33.038Z,951.09
2023-01-19T02:42:32.971Z,951.08
2023-01-19T02:43:32.958Z,951.12
2023-01-19T02:44:32.951Z,951.14
2023-01-19T02:45:32.861Z,951.1
2023-01-19T02:47:32.984Z,951.11
2023-01-19T02:48:32.984Z,951.15
2023-01-19T02:51:33.010Z,951.19
2023-01-19T02:52:32.874Z,951.17
2023-01-19T02:53:32.940Z,951.21
2023-01-19T02:54:33.011Z,951.22
2023-01-19T02:55:32.984Z,951.26
2023-01-19T02:56:32.865Z,951.27
2023-01-19T02:59:33.008Z,951.28
2023-01-19T03:00:32.955Z,951.27
2023-01-19T03:02:33.028Z,951.3
2023-01-19T03:04:32.935Z,951.32
2023-01-19T03:05:32.991Z,951.27
2023-01-19T03:06:32.991Z,951.32
2023-01-19T03:07:33.080Z,951.33
2023-01-19T03:08:33.074Z,951.34
2023-01-19T03:09:32.987Z,951.35
2023-01-19T03:10:32.994Z,951.32
2023-01-19T03:11:33.053Z,951.34
2023-01-19T03:12:33.036Z,951.33
2023-01-19T03:13:33.012Z,951.4
2023-01-19T03:14:33.055Z,951.38
2023-01-19T03:15:32.983Z,951.4
2023-01-19T03:16:33.050Z,951.37
2023-01-19T03:17:33.024Z,951.42
2023-01-19T03:18:32.925Z,951.34
2023-01-19T03:19:32.995Z,951.37
2023-01-19T03:20:32.967Z,951.4
2023-01-19T03:21:33.084Z,951.37
2023-01-19T03:22:33.101Z,951.35
2023-01-19T03:23:33.043Z,951.33
2023-01-19T03:24:33.063Z,951.34
2023-01-19T03:25:32.945Z,951.37
2023-01-19T03:26:33.077Z,951.4
2023-01-19T03:27:33.019Z,951.36
2023-01-19T03:28:33.011Z,951.38
2023-01-19T03:29:33.071Z,951.39
2023-01-19T03:30:33.069Z,951.44
2023-01-19T03:31:32.976Z,951.43
2023-01-19T03:32:33.075Z,951.44
2023-01-19T03:33:32.997Z,951.46
2023-01-19T03:34:33.149Z,951.41
2023-01-19T03:35:33.036Z,951.44
2023-01-19T03:36:33.145Z,951.42
2023-01-19T03:37:32.999Z,951.45
2023-01-19T03:39:33.018Z,951.41
2023-01-19T03:40:33.053Z,951.43
2023-01-19T03:42:32.994Z,951.45
2023-01-19T03:43:33.064Z,951.4
2023-01-19T03:44:33.167Z,951.44
2023-01-19T03:46:33.109Z,951.42
2023-01-19T03:47:33.104Z,951.46
2023-01-19T03:48:32.990Z,951.45
2023-01-19T03:49:33.148Z,951.46
2023-01-19T03:50:33.055Z,951.48
2023-01-19T03:51:33.072Z,951.46
2023-01-19T03:52:33.089Z,951.5
2023-01-19T03:53:33.179Z,951.52
2023-01-19T03:54:33.085Z,951.46
2023-01-19T03:55:33.063Z,951.48
2023-01-19T03:56:33.109Z,951.47
2023-01-19T03:57:33.183Z,951.5
2023-01-19T03:58:33.055Z,951.45
2023-01-19T03:59:33.054Z,951.49
2023-01-19T04:00:33.102Z,951.51
2023-01-19T04:01:33.164Z,951.54
2023-01-19T04:03:33.219Z,951.59
2023-01-19T04:04:33.074Z,951.57
2023-01-19T04:05:33.146Z,951.55
2023-01-19T04:06:33.085Z,951.59
2023-01-19T04:07:33.163Z,951.62
2023-01-19T04:08:33.092Z,951.6
2023-01-19T04:09:33.118Z,951.64
2023-01-19T04:10:33.111Z,951.65
2023-01-19T04:11:33.097Z,951.6
2023-01-19T04:12:33.168Z,951.62
2023-01-19T04:13:33.041Z,951.59
2023-01-19T04:14:33.244Z,951.62
2023-01-19T04:15:33.171Z,951.61
2023-01-19T04:16:33.160Z,951.6
2023-01-19T04:17:33.034Z,951.59
2023-01-19T04:19:33.112Z,951.58
2023-01-19T04:20:33.033Z,951.6
2023-01-19T04:21:33.186Z,951.59
2023-01-19T04:22:33.153Z,951.61
2023-01-19T04:23:33.235Z,951.6
2023-01-19T04:24:33.212Z,951.59
2023-01-19T04:25:33.120Z,951.55
2023-01-19T04:26:33.328Z,951.58
2023-01-19T04:27:33.167Z,951.6
2023-01-19T04:29:33.252Z,951.62
2023-01-19T04:30:33.127Z,951.6
2023-01-19T04:31:33.164Z,951.62
2023-01-19T04:32:33.058Z,951.61
2023-01-19T04:34:33.159Z,951.6
2023-01-19T04:36:33.153Z,951.61
2023-01-19T04:37:33.265Z,951.64
2023-01-19T04:38:33.293Z,951.61
2023-01-19T04:40:33.112Z,951.64
2023-01-19T04:41:33.152Z,951.59
2023-01-19T04:42:33.146Z,951.6
2023-01-19T04:43:33.169Z,951.63
2023-01-19T04:44:33.330Z,951.67
2023-01-19T04:45:33.192Z,951.68
2023-01-19T04:46:33.355Z,951.69
2023-01-19T04:47:33.235Z,951.7
2023-01-19T04:49:02.544Z,951.84
2023-01-19T04:50:02.397Z,951.77
2023-01-19T04:51:02.630Z,951.73
2023-01-19T04:52:02.336Z,951.72
2023-01-19T04:53:02.800Z,951.7
2023-01-19T04:54:02.314Z,951.74
2023-01-19T04:55:02.330Z,951.71
2023-01-19T04:56:02.414Z,951.74
2023-01-19T04:57:02.570Z,951.72
2023-01-19T04:59:02.358Z,951.76
2023-01-19T05:00:02.336Z,951.77
2023-01-19T05:01:02.528Z,951.75
2023-01-19T05:02:02.517Z,951.77
2023-01-19T05:03:02.996Z,951.81
2023-01-19T05:04:02.539Z,951.78
2023-01-19T05:05:02.463Z,951.77
2023-01-19T05:06:02.414Z,951.8
2023-01-19T05:07:02.447Z,951.78
2023-01-19T05:08:02.397Z,951.79
2023-01-19T05:09:02.663Z,951.78
2023-01-19T05:10:02.460Z,951.76
2023-01-19T05:12:02.601Z,951.77
2023-01-19T05:13:02.857Z,951.74
2023-01-19T05:14:02.470Z,951.75
2023-01-19T05:15:02.402Z,951.85
2023-01-19T05:16:02.541Z,951.79
2023-01-19T05:17:02.431Z,951.8
2023-01-19T05:18:02.649Z,951.84
2023-01-19T05:20:02.439Z,951.85
2023-01-19T05:21:02.400Z,951.86
2023-01-19T05:22:02.496Z,951.87
2023-01-19T05:23:02.774Z,951.93
2023-01-19T05:24:02.393Z,951.91
2023-01-19T05:25:02.464Z,951.93
2023-01-19T05:26:02.697Z,951.91
2023-01-19T05:27:02.385Z,951.94
2023-01-19T05:28:02.496Z,951.93
2023-01-19T05:29:02.725Z,951.95
2023-01-19T05:30:02.388Z,951.96
2023-01-19T05:31:02.611Z,951.95
2023-01-19T05:33:02.919Z,951.94
2023-01-19T05:34:02.544Z,951.95
2023-01-19T05:35:02.682Z,951.96
2023-01-19T05:36:02.889Z,951.98
2023-01-19T05:37:02.403Z,951.97
2023-01-19T05:38:03.537Z,951.95
2023-01-19T05:39:02.549Z,951.97
2023-01-19T05:40:02.490Z,951.94
2023-01-19T05:41:02.678Z,951.99
2023-01-19T05:42:02.479Z,952
2023-01-19T05:43:02.871Z,951.98
2023-01-19T05:44:02.442Z,951.99
2023-01-19T05:46:02.555Z,951.97
2023-01-19T05:47:02.429Z,952.02
2023-01-19T05:49:02.532Z,951.99
2023-01-19T05:50:02.690Z,952.02
2023-01-19T05:51:02.675Z,952.06
2023-01-19T05:54:02.547Z,952.09
2023-01-19T05:55:02.487Z,952.11
2023-01-19T05:58:02.515Z,952.14
2023-01-19T05:59:02.591Z,952.16
2023-01-19T06:00:02.551Z,952.14
2023-01-19T06:01:03.660Z,952.17
2023-01-19T06:04:03.744Z,952.15
2023-01-19T06:05:02.560Z,952.19
2023-01-19T06:06:02.595Z,952.16
2023-01-19T06:07:02.784Z,952.18
2023-01-19T06:08:02.518Z,952.19
2023-01-19T06:09:02.605Z,952.22
2023-01-19T06:11:02.632Z,952.25
2023-01-19T06:12:02.580Z,952.2
2023-01-19T06:13:02.967Z,952.21
2023-01-19T06:14:02.623Z,952.23
2023-01-19T06:15:02.583Z,952.26
2023-01-19T06:16:02.577Z,952.23
2023-01-19T06:17:02.639Z,952.24
2023-01-19T06:18:02.548Z,952.23
2023-01-19T06:20:02.515Z,952.21
2023-01-19T06:21:02.557Z,952.18
2023-01-19T06:22:03.764Z,952.22
2023-01-19T06:23:02.813Z,952.19
2023-01-19T06:24:02.638Z,952.17
2023-01-19T06:25:02.712Z,952.18
2023-01-19T06:26:02.623Z,952.21
2023-01-19T06:27:02.561Z,952.18
2023-01-19T06:28:02.544Z,952.24
2023-01-19T06:29:02.665Z,952.27
2023-01-19T06:30:02.677Z,952.29
2023-01-19T06:31:03.838Z,952.3
2023-01-19T06:32:02.649Z,952.27
2023-01-19T06:34:02.620Z,952.32
2023-01-19T06:35:02.489Z,952.29
2023-01-19T06:36:02.790Z,952.33
2023-01-19T06:37:02.679Z,952.32
2023-01-19T06:38:02.569Z,952.37
2023-01-19T06:39:02.611Z,952.41
2023-01-19T06:40:02.539Z,952.45
2023-01-19T06:41:02.623Z,952.43
2023-01-19T06:42:02.579Z,952.45
2023-01-19T06:43:03.056Z,952.5
2023-01-19T06:44:02.592Z,952.47
2023-01-19T06:45:03.865Z,952.51
2023-01-19T06:47:14.497Z,952.49
2023-01-19T06:48:02.911Z,952.52
2023-01-19T06:49:02.641Z,952.5
2023-01-19T06:50:02.708Z,952.47
2023-01-19T06:51:03.908Z,952.52
2023-01-19T06:53:02.964Z,952.5
2023-01-19T06:55:02.782Z,952.58
2023-01-19T06:56:02.785Z,952.52
2023-01-19T06:57:03.929Z,952.55
2023-01-19T06:58:02.680Z,952.63
2023-01-19T06:59:02.762Z,952.6
2023-01-19T07:00:02.606Z,952.57
2023-01-19T07:01:02.730Z,952.62
2023-01-19T07:03:04.427Z,952.65
2023-01-19T07:04:02.859Z,952.64
2023-01-19T07:05:03.941Z,952.65
2023-01-19T07:06:02.905Z,952.63
2023-01-19T07:07:02.779Z,952.65
2023-01-19T07:08:02.662Z,952.68
2023-01-19T07:09:02.618Z,952.7
2023-01-19T07:10:02.790Z,952.71
2023-01-19T07:11:22.580Z,952.74
2023-01-19T07:12:02.820Z,952.76
2023-01-19T07:13:03.294Z,952.73
2023-01-19T07:14:02.830Z,952.79
2023-01-19T07:15:02.603Z,952.8
2023-01-19T07:16:02.681Z,952.83
2023-01-19T07:17:02.768Z,952.85
2023-01-19T07:18:02.867Z,952.86
2023-01-19T07:19:02.796Z,952.88
2023-01-19T07:21:02.743Z,952.9
2023-01-19T07:22:02.619Z,952.91
2023-01-19T07:24:02.917Z,952.92
2023-01-19T07:25:02.819Z,952.94
2023-01-19T07:26:04.063Z,952.91
2023-01-19T07:27:02.841Z,952.95
2023-01-19T07:28:02.916Z,952.96
2023-01-19T07:29:02.622Z,952.98
2023-01-19T07:30:02.875Z,952.96
2023-01-19T07:31:02.939Z,952.97
2023-01-19T07:32:02.688Z,952.99
2023-01-19T07:33:03.169Z,953
2023-01-19T07:34:02.886Z,953.02
2023-01-19T07:37:02.877Z,953.05
2023-01-19T07:38:04.617Z,953.04
2023-01-19T07:39:02.863Z,953.08
2023-01-19T07:40:02.883Z,953.09
2023-01-19T07:41:02.746Z,953.05
2023-01-19T07:42:02.839Z,953.06
2023-01-19T07:43:03.154Z,953.04
2023-01-19T07:44:02.986Z,953.08
2023-01-19T07:45:02.876Z,953.1
2023-01-19T07:46:02.805Z,953.11
2023-01-19T07:47:02.819Z,953.12
2023-01-19T07:48:03.050Z,953.16
2023-01-19T07:49:02.911Z,953.15
2023-01-19T07:50:02.768Z,953.12
2023-01-19T07:51:02.748Z,953.14
2023-01-19T07:52:02.731Z,953.13
2023-01-19T07:53:03.133Z,953.15
2023-01-19T07:54:02.688Z,953.14
2023-01-19T07:55:02.866Z,953.17
2023-01-19T07:56:02.938Z,953.16
2023-01-19T07:57:02.863Z,953.15
2023-01-19T07:58:02.750Z,953.16
2023-01-19T07:59:02.951Z,953.13
2023-01-19T08:00:02.893Z,953.19
2023-01-19T08:02:03.012Z,953.21
2023-01-19T08:03:03.368Z,953.22
2023-01-19T08:04:02.730Z,953.21
2023-01-19T08:05:02.940Z,953.22
2023-01-19T08:06:02.963Z,953.23
2023-01-19T08:08:03.021Z,953.26
2023-01-19T08:09:02.912Z,953.23
2023-01-19T08:10:03.723Z,953.25
2023-01-19T08:11:03.059Z,953.2
2023-01-19T08:12:02.949Z,953.27
2023-01-19T08:13:06.756Z,953.22
2023-01-19T08:14:03.014Z,953.23
2023-01-19T08:15:02.910Z,953.22
2023-01-19T08:18:02.972Z,953.24
2023-01-19T08:20:02.965Z,953.25
2023-01-19T08:21:02.953Z,953.2
2023-01-19T08:22:02.911Z,953.24
2023-01-19T08:23:03.491Z,953.2
2023-01-19T08:24:02.890Z,953.25
2023-01-19T08:25:03.832Z,953.23
2023-01-19T08:26:03.016Z,953.25
2023-01-19T08:27:02.929Z,953.28
2023-01-19T08:28:03.888Z,953.29
2023-01-19T08:29:03.017Z,953.32
2023-01-19T08:30:03.873Z,953.27
2023-01-19T08:31:14.614Z,953.31
2023-01-19T08:33:03.222Z,953.32
2023-01-19T08:34:03.073Z,953.35
2023-01-19T08:35:02.971Z,953.38
2023-01-19T08:37:03.022Z,953.39
2023-01-19T08:38:03.031Z,953.37
2023-01-19T08:41:03.024Z,953.38
2023-01-19T08:42:02.901Z,953.37
2023-01-19T08:43:03.276Z,953.41
2023-01-19T08:44:02.870Z,953.38
2023-01-19T08:46:03.089Z,953.39
2023-01-19T08:47:02.876Z,953.41
2023-01-19T08:48:02.874Z,953.43
2023-01-19T08:49:02.871Z,953.4
2023-01-19T08:50:02.864Z,953.42
2023-01-19T08:51:02.897Z,953.43
2023-01-19T08:52:03.041Z,953.45
2023-01-19T08:53:03.383Z,953.44
2023-01-19T08:55:03.049Z,953.45
2023-01-19T08:56:03.074Z,953.47
2023-01-19T08:57:02.967Z,953.46
2023-01-19T08:58:03.133Z,953.44
2023-01-19T08:59:09.421Z,953.45
2023-01-19T09:00:02.977Z,953.47
2023-01-19T09:02:03.025Z,953.51
2023-01-19T09:03:03.363Z,953.48
2023-01-19T09:04:03.051Z,953.53
2023-01-19T09:05:02.875Z,953.5
2023-01-19T09:07:03.068Z,953.52
2023-01-19T09:09:02.960Z,953.51
2023-01-19T09:10:02.912Z,953.52
2023-01-19T09:11:03.090Z,953.53
2023-01-19T09:12:02.976Z,953.52
2023-01-19T09:13:03.076Z,953.5
2023-01-19T09:15:03.097Z,953.49
2023-01-19T09:16:02.910Z,953.52
2023-01-19T09:17:03.046Z,953.48
2023-01-19T09:18:03.221Z,953.46
2023-01-19T09:19:03.101Z,953.47
2023-01-19T09:20:03.044Z,953.48
2023-01-19T09:21:02.901Z,953.42
2023-01-19T09:22:03.117Z,953.39
2023-01-19T09:23:04.110Z,953.44
2023-01-19T09:24:04.102Z,953.39
2023-01-19T09:25:03.114Z,953.36
2023-01-19T09:26:03.009Z,953.41
2023-01-19T09:27:02.978Z,953.42
2023-01-19T09:28:03.417Z,953.4
2023-01-19T09:30:03.110Z,953.44
2023-01-19T09:31:03.073Z,953.41
2023-01-19T09:32:02.943Z,953.42
2023-01-19T09:33:03.155Z,953.44
2023-01-19T09:35:02.957Z,953.47
2023-01-19T09:37:03.028Z,953.48
2023-01-19T09:38:03.317Z,953.46
2023-01-19T09:39:03.153Z,953.44
2023-01-19T09:40:03.003Z,953.49
2023-01-19T09:42:02.972Z,953.47
2023-01-19T09:44:03.067Z,953.48
2023-01-19T09:45:02.988Z,953.5
2023-01-19T09:46:02.959Z,953.51
2023-01-19T09:48:03.254Z,953.48
2023-01-19T09:49:03.124Z,953.52
2023-01-19T09:50:03.001Z,953.49
2023-01-19T09:51:03.086Z,953.47
2023-01-19T09:52:03.010Z,953.46
2023-01-19T09:53:03.236Z,953.49
2023-01-19T09:54:03.070Z,953.46
2023-01-19T09:55:03.000Z,953.49
2023-01-19T09:56:03.165Z,953.46
2023-01-19T09:57:03.080Z,953.43
2023-01-19T09:58:03.277Z,953.47
2023-01-19T09:59:03.027Z,953.42
2023-01-19T10:00:03.021Z,953.44
2023-01-19T10:01:03.150Z,953.37
2023-01-19T10:02:03.085Z,953.38
2023-01-19T10:03:03.526Z,953.36
2023-01-19T10:04:03.015Z,953.35
2023-01-19T10:05:03.082Z,953.37
2023-01-19T10:07:03.091Z,953.38
2023-01-19T10:08:03.304Z,953.36
2023-01-19T10:10:03.009Z,953.38
2023-01-19T10:11:03.087Z,953.34
2023-01-19T10:13:03.380Z,953.37
2023-01-19T10:14:03.061Z,953.34
2023-01-19T10:15:03.073Z,953.39
2023-01-19T10:16:03.133Z,953.36
2023-01-19T10:17:03.116Z,953.39
2023-01-19T10:18:03.374Z,953.37
2023-01-19T10:19:03.028Z,953.39
2023-01-19T10:20:03.028Z,953.34
2023-01-19T10:23:03.474Z,953.38
2023-01-19T10:24:04.465Z,953.36
2023-01-19T10:25:03.097Z,953.34
2023-01-19T10:26:03.136Z,953.39
2023-01-19T10:27:03.096Z,953.37
2023-01-19T10:28:03.134Z,953.4
2023-01-19T10:29:03.122Z,953.38
2023-01-19T10:30:03.125Z,953.39
2023-01-19T10:32:03.150Z,953.41
2023-01-19T10:33:03.485Z,953.36
2023-01-19T10:34:03.112Z,953.34
2023-01-19T10:35:03.185Z,953.33
2023-01-19T10:36:03.191Z,953.39
2023-01-19T10:37:03.110Z,953.33
2023-01-19T10:38:03.230Z,953.31
2023-01-19T10:41:03.181Z,953.32
2023-01-19T10:42:03.092Z,953.26
2023-01-19T10:43:03.561Z,953.27
2023-01-19T10:44:03.140Z,953.26
2023-01-19T10:45:03.103Z,953.27
2023-01-19T10:46:03.277Z,953.29
2023-01-19T10:47:03.141Z,953.28
2023-01-19T10:48:03.354Z,953.25
2023-01-19T10:49:03.163Z,953.26
2023-01-19T10:50:03.330Z,953.23
2023-01-19T10:51:03.258Z,953.25
2023-01-19T10:52:03.240Z,953.19
2023-01-19T10:54:03.322Z,953.17
2023-01-19T10:55:03.123Z,953.16
2023-01-19T10:56:03.179Z,953.17
2023-01-19T10:57:03.259Z,953.12
2023-01-19T10:59:03.132Z,953.13
2023-01-19T11:00:03.211Z,953.14
2023-01-19T11:01:03.267Z,953.16
2023-01-19T11:03:03.751Z,953.14
2023-01-19T11:04:03.324Z,953.15
2023-01-19T11:06:03.372Z,953.1
2023-01-19T11:07:03.242Z,953.13
2023-01-19T11:08:03.156Z,953.07
2023-01-19T11:09:03.299Z,953.06
2023-01-19T11:11:03.207Z,953.11
2023-01-19T11:12:03.285Z,953.09
2023-01-19T11:13:03.926Z,953.13
2023-01-19T11:16:03.396Z,953.1
2023-01-19T11:17:03.125Z,953.04
2023-01-19T11:18:03.295Z,953.05
2023-01-19T11:19:03.435Z,953.06
2023-01-19T11:20:03.274Z,953.04
2023-01-19T11:21:03.229Z,953.07
2023-01-19T11:22:03.334Z,953
2023-01-19T11:23:03.675Z,953.06
2023-01-19T11:24:03.289Z,953.02
2023-01-19T11:25:03.214Z,953.01
2023-01-19T11:28:03.298Z,953.04
2023-01-19T11:29:03.290Z,953.01
2023-01-19T11:31:03.400Z,953
2023-01-19T11:32:03.422Z,952.95
2023-01-19T11:33:03.452Z,952.93
2023-01-19T11:34:03.199Z,952.94
2023-01-19T11:35:03.344Z,952.96
2023-01-19T11:37:03.378Z,952.95
2023-01-19T11:38:03.309Z,952.94
2023-01-19T11:40:03.340Z,952.96
2023-01-19T11:42:03.470Z,952.92
2023-01-19T11:43:03.574Z,952.95
2023-01-19T11:44:03.374Z,952.93
2023-01-19T11:45:03.338Z,952.94
2023-01-19T11:46:03.426Z,952.97
2023-01-19T11:47:03.308Z,952.91
2023-01-19T11:48:03.669Z,952.95
2023-01-19T11:50:03.240Z,952.92
2023-01-19T11:51:03.438Z,952.94
2023-01-19T11:52:03.466Z,952.91
2023-01-19T11:55:03.317Z,952.9
2023-01-19T11:56:03.259Z,952.86
2023-01-19T11:57:03.471Z,952.87
2023-01-19T11:59:03.335Z,952.85
2023-01-19T12:00:03.477Z,952.84
2023-01-19T12:02:03.421Z,952.83
2023-01-19T12:03:03.355Z,952.81
2023-01-19T12:04:03.290Z,952.8
2023-01-19T12:06:03.470Z,952.79
2023-01-19T12:07:03.448Z,952.8
2023-01-19T12:09:03.426Z,952.81
2023-01-19T12:10:03.425Z,952.84
2023-01-19T12:12:03.519Z,952.85
2023-01-19T12:13:03.475Z,952.88
2023-01-19T12:14:03.472Z,952.89
2023-01-19T12:15:03.339Z,952.88
2023-01-19T12:16:03.429Z,952.86
2023-01-19T12:17:03.479Z,952.8
2023-01-19T12:18:03.758Z,952.78
2023-01-19T12:19:03.388Z,952.8
2023-01-19T12:20:03.295Z,952.79
2023-01-19T12:21:04.241Z,952.82
2023-01-19T12:25:03.424Z,952.8
2023-01-19T12:26:03.492Z,952.76
2023-01-19T12:27:03.363Z,952.79
2023-01-19T12:28:03.459Z,952.8
2023-01-19T12:29:04.648Z,952.83
2023-01-19T12:31:03.516Z,952.8
2023-01-19T12:32:03.403Z,952.82
2023-01-19T12:33:03.378Z,952.76
2023-01-19T12:34:03.455Z,952.77
2023-01-19T12:36:03.505Z,952.73
2023-01-19T12:37:03.415Z,952.75
2023-01-19T12:38:03.536Z,952.78
2023-01-19T12:39:03.356Z,952.76
2023-01-19T12:40:03.410Z,952.78
2023-01-19T12:41:03.361Z,952.75
2023-01-19T12:42:03.477Z,952.76
2023-01-19T12:43:03.486Z,952.75
2023-01-19T12:44:03.677Z,952.72
2023-01-19T12:45:03.486Z,952.7
2023-01-19T12:47:03.496Z,952.73
2023-01-19T12:48:03.673Z,952.67
2023-01-19T12:50:04.601Z,952.7
2023-01-19T12:51:03.563Z,952.68
2023-01-19T12:55:03.473Z,952.7
2023-01-19T12:56:03.402Z,952.67
2023-01-19T12:57:03.508Z,952.69
2023-01-19T12:58:03.612Z,952.68
2023-01-19T12:59:03.515Z,952.67
2023-01-19T13:00:03.534Z,952.63
2023-01-19T13:01:05.183Z,952.65
2023-01-19T13:02:03.464Z,952.64
2023-01-19T13:03:03.486Z,952.66
2023-01-19T13:04:03.912Z,952.69
2023-01-19T13:05:03.566Z,952.64
2023-01-19T13:06:03.527Z,952.61
2023-01-19T13:07:03.552Z,952.65
2023-01-19T13:08:03.550Z,952.64
2023-01-19T13:09:03.489Z,952.61
2023-01-19T13:10:03.595Z,952.59
2023-01-19T13:11:03.545Z,952.57
2023-01-19T13:13:03.609Z,952.56
2023-01-19T13:14:03.521Z,952.53
2023-01-19T13:15:03.540Z,952.54
2023-01-19T13:16:03.701Z,952.57
2023-01-19T13:17:03.592Z,952.59
2023-01-19T13:20:03.599Z,952.59
2023-01-19T13:21:03.712Z,952.6
2023-01-19T13:22:03.470Z,952.55
2023-01-19T13:23:03.596Z,952.62
2023-01-19T13:24:03.620Z,952.55
2023-01-19T13:25:03.596Z,952.59
2023-01-19T13:26:03.856Z,952.56
2023-01-19T13:27:03.701Z,952.47
2023-01-19T13:28:03.671Z,952.46
2023-01-19T13:29:03.616Z,952.52
2023-01-19T13:30:04.788Z,952.65
2023-01-19T13:31:03.880Z,952.61
2023-01-19T13:32:03.720Z,952.58
2023-01-19T13:33:03.460Z,952.56
2023-01-19T13:34:03.688Z,952.54
2023-01-19T13:35:03.594Z,952.52
2023-01-19T13:36:03.508Z,952.5
2023-01-19T13:37:03.664Z,952.53
2023-01-19T13:38:03.586Z,952.51
2023-01-19T13:39:03.676Z,952.52
2023-01-19T13:40:03.689Z,952.47
2023-01-19T13:41:03.629Z,952.52
2023-01-19T13:42:03.520Z,952.55
2023-01-19T13:43:03.631Z,952.53
2023-01-19T13:44:03.600Z,952.48
2023-01-19T13:45:03.671Z,952.47
2023-01-19T13:46:03.698Z,952.5
2023-01-19T13:47:03.610Z,952.52
2023-01-19T13:48:03.769Z,952.45
2023-01-19T13:49:03.579Z,952.54
2023-01-19T13:50:03.847Z,952.51
2023-01-19T13:51:03.608Z,952.47
2023-01-19T13:52:03.540Z,952.46
2023-01-19T13:53:03.623Z,952.51
2023-01-19T13:54:03.610Z,952.6
2023-01-19T13:55:04.139Z,952.59
2023-01-19T13:56:03.745Z,952.6
2023-01-19T13:57:03.716Z,952.52
2023-01-19T13:58:03.672Z,952.49
2023-01-19T13:59:03.613Z,952.48
2023-01-19T14:00:03.684Z,952.45
2023-01-19T14:01:03.704Z,952.49
2023-01-19T14:02:03.662Z,952.5
2023-01-19T14:03:03.616Z,952.57
2023-01-19T14:04:03.663Z,952.55
2023-01-19T14:06:03.695Z,952.58
2023-01-19T14:07:03.745Z,952.61
2023-01-19T14:08:03.709Z,952.63
2023-01-19T14:10:03.690Z,952.67
2023-01-19T14:11:03.841Z,952.74
2023-01-19T14:12:03.700Z,952.67
2023-01-19T14:13:03.694Z,952.6
2023-01-19T14:14:03.802Z,952.49
2023-01-19T14:15:03.583Z,952.4
2023-01-19T14:16:03.762Z,952.37
2023-01-19T14:17:03.772Z,952.35
2023-01-19T14:18:03.638Z,952.37
2023-01-19T14:19:03.593Z,952.38
2023-01-19T14:20:05.289Z,952.39
2023-01-19T14:21:03.754Z,952.4
2023-01-19T14:22:03.689Z,952.35
2023-01-19T14:23:03.802Z,952.3
2023-01-19T14:24:03.755Z,952.35
2023-01-19T14:25:03.659Z,952.33
2023-01-19T14:26:03.652Z,952.35
2023-01-19T14:27:03.621Z,952.37
2023-01-19T14:28:03.690Z,952.38
2023-01-19T14:29:03.680Z,952.35
2023-01-19T14:30:03.728Z,952.41
2023-01-19T14:31:03.879Z,952.38
2023-01-19T14:32:03.670Z,952.33
2023-01-19T14:33:03.669Z,952.34